createdAt,value
2022-12-23T00:01:29.260Z,13.48
2022-12-23T00:03:59.289Z,15.68
2022-12-23T00:06:26.168Z,15.77
2022-12-23T00:08:58.181Z,17.63
2022-12-23T00:11:25.631Z,14.55
2022-12-23T00:14:14.630Z,15.50
2022-12-23T00:16:44.689Z,21.55
2022-12-23T00:19:10.987Z,20.30
2022-12-23T00:21:37.430Z,21.08
2022-12-23T00:24:03.863Z,19.33
2022-12-23T00:26:30.139Z,16.75
2022-12-23T00:28:57.585Z,17.67
2022-12-23T00:31:24.096Z,15.20
2022-12-23T00:33:50.956Z,24.00
2022-12-23T00:36:21.628Z,21.20
2022-12-23T00:39:06.755Z,12.90
2022-12-23T00:41:51.594Z,17.90
2022-12-23T00:44:17.924Z,19.42
2022-12-23T00:46:44.225Z,14.95
2022-12-23T00:49:32.680Z,17.83
2022-12-23T00:51:59.095Z,12.88
2022-12-23T00:54:25.452Z,11.02
2022-12-23T00:56:51.753Z,22.50
2022-12-23T00:59:18.078Z,14.48
2022-12-23T01:02:02.955Z,15.05
2022-12-23T01:04:48.077Z,19.45
2022-12-23T01:07:14.385Z,16.95
2022-12-23T01:09:40.717Z,14.82
2022-12-23T01:12:07.086Z,15.85
2022-12-23T01:14:33.816Z,18.40
2022-12-23T01:17:00.457Z,17.42
2022-12-23T01:19:27.377Z,12.88
2022-12-23T01:21:53.686Z,12.50
2022-12-23T01:24:20.094Z,21.73
2022-12-23T01:26:46.373Z,22.92
2022-12-23T01:29:12.637Z,16.30
2022-12-23T01:31:39.016Z,16.33
2022-12-23T01:34:05.294Z,21.85
2022-12-23T01:36:31.630Z,17.92
2022-12-23T01:38:57.896Z,20.20
2022-12-23T01:41:44.391Z,16.48
2022-12-23T01:44:29.237Z,15.35
2022-12-23T01:46:55.467Z,19.73
2022-12-23T01:49:21.751Z,25.05
2022-12-23T01:51:48.057Z,23.17
2022-12-23T01:54:14.335Z,22.95
2022-12-23T01:56:40.801Z,22.15
2022-12-23T01:59:11.881Z,20.95
2022-12-23T02:01:57.283Z,23.15
2022-12-23T02:04:24.750Z,12.95
2022-12-23T02:07:09.853Z,9.52
2022-12-23T02:09:37.435Z,15.52
2022-12-23T02:12:03.703Z,11.45
2022-12-23T02:14:48.412Z,12.30
2022-12-23T02:17:40.703Z,15.27
2022-12-23T02:20:06.930Z,10.55
2022-12-23T02:22:55.727Z,14.20
2022-12-23T02:25:24.938Z,14.57
2022-12-23T02:27:58.085Z,7.50
2022-12-23T02:30:27.220Z,8.50
2022-12-23T02:33:01.625Z,6.93
2022-12-23T02:35:37.293Z,23.50
2022-12-23T02:38:12.632Z,11.30
2022-12-23T02:40:41.884Z,7.93
2022-12-23T02:43:11.262Z,6.55
2022-12-23T02:45:47.787Z,6.97
2022-12-23T02:48:21.767Z,4.38
2022-12-23T02:50:48.913Z,6.90
2022-12-23T02:53:21.776Z,6.63
2022-12-23T02:55:48.952Z,7.35
2022-12-23T02:58:16.827Z,18.33
2022-12-23T03:00:43.652Z,11.25
2022-12-23T03:03:10.273Z,10.13
2022-12-23T03:05:39.224Z,4.22
2022-12-23T03:08:06.607Z,6.47
2022-12-23T03:10:38.804Z,5.70
2022-12-23T03:13:12.203Z,11.98
2022-12-23T03:15:47.181Z,11.57
2022-12-23T03:18:13.523Z,7.43
2022-12-23T03:20:50.066Z,7.72
2022-12-23T03:23:16.288Z,5.65
2022-12-23T03:25:47.843Z,5.78
2022-12-23T03:28:18.263Z,10.63
2022-12-23T03:30:46.366Z,10.05
2022-12-23T03:33:18.575Z,13.77
2022-12-23T03:36:03.378Z,6.20
2022-12-23T03:38:32.555Z,9.55
2022-12-23T03:41:02.533Z,9.15
2022-12-23T03:43:32.404Z,11.10
2022-12-23T03:46:05.956Z,7.93
2022-12-23T03:48:35.592Z,6.45
2022-12-23T03:51:04.288Z,4.88
2022-12-23T03:53:32.187Z,5.65
2022-12-23T03:56:01.377Z,7.05
2022-12-23T03:58:36.563Z,7.38
2022-12-23T04:01:07.641Z,12.18
2022-12-23T04:03:57.321Z,6.05
2022-12-23T04:06:24.154Z,5.47
2022-12-23T04:08:50.624Z,5.80
2022-12-23T04:11:16.972Z,8.93
2022-12-23T04:13:43.311Z,7.03
2022-12-23T04:16:09.931Z,6.28
2022-12-23T04:18:36.240Z,7.95
2022-12-23T04:21:02.555Z,5.38
2022-12-23T04:23:28.840Z,5.57
2022-12-23T04:25:55.126Z,11.10
2022-12-23T04:28:21.459Z,5.63
2022-12-23T04:30:47.716Z,8.38
2022-12-23T04:33:14.183Z,9.25
2022-12-23T04:35:40.430Z,5.78
2022-12-23T04:38:07.292Z,6.00
2022-12-23T04:40:33.550Z,8.55
2022-12-23T04:42:59.789Z,13.30
2022-12-23T04:45:26.098Z,7.68
2022-12-23T04:47:52.407Z,9.93
2022-12-23T04:50:18.687Z,6.70
2022-12-23T04:52:45.047Z,9.52
2022-12-23T04:55:11.477Z,9.02
2022-12-23T04:57:37.814Z,12.73
2022-12-23T05:00:04.836Z,7.90
2022-12-23T05:02:31.207Z,7.15
2022-12-23T05:04:57.607Z,12.50
2022-12-23T05:07:23.912Z,8.05
2022-12-23T05:09:50.165Z,7.95
2022-12-23T05:12:16.389Z,4.68
2022-12-23T05:14:42.676Z,8.38
2022-12-23T05:17:09.019Z,6.35
2022-12-23T05:19:35.361Z,15.70
2022-12-23T05:22:01.650Z,9.45
2022-12-23T05:24:27.952Z,8.63
2022-12-23T05:26:59.639Z,10.82
2022-12-23T05:29:26.624Z,5.25
2022-12-23T05:31:53.018Z,6.97
2022-12-23T05:34:19.353Z,10.20
2022-12-23T05:36:45.619Z,7.35
2022-12-23T05:39:11.934Z,9.00
2022-12-23T05:41:38.245Z,12.88
2022-12-23T05:44:04.613Z,9.05
2022-12-23T05:46:31.035Z,7.85
2022-12-23T05:48:57.414Z,10.40
2022-12-23T05:51:23.757Z,8.98
2022-12-23T05:53:50.044Z,11.80
2022-12-23T05:56:16.276Z,10.25
2022-12-23T05:58:42.512Z,8.43
2022-12-23T06:01:08.844Z,9.27
2022-12-23T06:03:35.256Z,10.95
2022-12-23T06:06:01.626Z,15.98
2022-12-23T06:08:27.857Z,14.07
2022-12-23T06:10:54.215Z,9.57
2022-12-23T06:13:20.503Z,16.60
2022-12-23T06:15:46.890Z,10.38
2022-12-23T06:18:13.315Z,13.02
2022-12-23T06:20:39.676Z,9.63
2022-12-23T06:23:06.033Z,11.90
2022-12-23T06:25:32.277Z,18.33
2022-12-23T06:27:58.665Z,8.57
2022-12-23T06:30:24.962Z,12.30
2022-12-23T06:32:51.211Z,9.77
2022-12-23T06:35:17.527Z,15.05
2022-12-23T06:37:44.568Z,10.82
2022-12-23T06:40:11.183Z,16.42
2022-12-23T06:42:37.485Z,10.95
2022-12-23T06:45:03.969Z,9.73
2022-12-23T06:47:30.332Z,11.88
2022-12-23T06:49:56.642Z,14.88
2022-12-23T06:52:23.144Z,10.55
2022-12-23T06:54:49.474Z,11.98
2022-12-23T06:57:15.718Z,14.23
2022-12-23T06:59:42.012Z,9.75
2022-12-23T07:02:10.550Z,16.52
2022-12-23T07:04:36.988Z,9.95
2022-12-23T07:07:03.285Z,19.05
2022-12-23T07:09:29.549Z,13.68
2022-12-23T07:11:55.859Z,12.85
2022-12-23T07:14:22.104Z,10.52
2022-12-23T07:16:48.530Z,10.23
2022-12-23T07:19:14.927Z,10.07
2022-12-23T07:21:42.409Z,21.80
2022-12-23T07:24:08.765Z,11.95
2022-12-23T07:26:35.058Z,11.65
2022-12-23T07:29:01.588Z,18.65
2022-12-23T07:31:28.439Z,16.50
2022-12-23T07:33:54.751Z,14.00
2022-12-23T07:36:20.993Z,12.80
2022-12-23T07:38:51.368Z,14.73
2022-12-23T07:41:17.982Z,10.63
2022-12-23T07:43:44.261Z,13.13
2022-12-23T07:46:10.728Z,14.80
2022-12-23T07:48:37.190Z,16.48
2022-12-23T07:51:03.863Z,19.15
2022-12-23T07:53:30.167Z,18.38
2022-12-23T07:55:56.952Z,18.25
2022-12-23T07:58:23.693Z,29.92
2022-12-23T08:00:50.103Z,27.75
2022-12-23T08:03:16.525Z,21.70
2022-12-23T08:05:43.281Z,18.73
2022-12-23T08:08:09.575Z,18.38
2022-12-23T08:10:35.840Z,16.23
2022-12-23T08:13:02.218Z,14.82
2022-12-23T08:15:28.537Z,14.93
2022-12-23T08:17:55.789Z,13.73
2022-12-23T08:20:22.059Z,16.23
2022-12-23T08:22:48.362Z,12.32
2022-12-23T08:25:14.817Z,30.45
2022-12-23T08:27:41.122Z,22.55
2022-12-23T08:30:07.678Z,23.02
2022-12-23T08:32:33.933Z,21.88
2022-12-23T08:35:00.174Z,25.00
2022-12-23T08:37:26.629Z,26.25
2022-12-23T08:39:52.998Z,20.23
2022-12-23T08:42:19.345Z,16.30
2022-12-23T08:44:45.633Z,16.35
2022-12-23T08:47:12.117Z,21.85
2022-12-23T08:49:38.358Z,19.45
2022-12-23T08:52:04.688Z,20.90
2022-12-23T08:54:30.985Z,22.83
2022-12-23T08:56:57.361Z,22.60
2022-12-23T08:59:23.671Z,16.05
2022-12-23T09:01:50.054Z,19.08
2022-12-23T09:04:16.820Z,19.63
2022-12-23T09:06:43.679Z,15.32
2022-12-23T09:09:11.503Z,22.27
2022-12-23T09:11:37.937Z,20.20
2022-12-23T09:14:04.739Z,19.25
2022-12-23T09:16:31.849Z,21.10
2022-12-23T09:18:58.375Z,22.60
2022-12-23T09:21:24.949Z,16.85
2022-12-23T09:23:51.633Z,26.55
2022-12-23T09:26:19.484Z,31.08
2022-12-23T09:28:45.870Z,32.22
2022-12-23T09:31:12.655Z,36.40
2022-12-23T09:33:39.170Z,29.50
2022-12-23T09:36:06.247Z,39.33
2022-12-23T09:38:32.816Z,25.38
2022-12-23T09:41:03.389Z,36.95
2022-12-23T09:43:35.158Z,21.70
2022-12-23T09:46:18.925Z,37.20
2022-12-23T09:48:58.460Z,59.00
2022-12-23T09:51:24.885Z,27.98
2022-12-23T09:53:59.437Z,26.05
2022-12-23T09:56:39.809Z,30.73
2022-12-23T09:59:24.850Z,35.83
2022-12-23T10:01:51.250Z,31.73
2022-12-23T10:04:35.880Z,24.75
2022-12-23T10:07:04.949Z,21.83
2022-12-23T10:09:37.373Z,24.20
2022-12-23T10:12:08.511Z,26.85
2022-12-23T10:14:35.859Z,18.45
2022-12-23T10:17:05.056Z,20.23
2022-12-23T10:19:41.653Z,19.27
2022-12-23T10:22:16.431Z,20.95
2022-12-23T10:24:46.790Z,26.75
2022-12-23T10:27:34.674Z,13.93
2022-12-23T10:30:33.640Z,16.10
2022-12-23T10:33:11.828Z,20.63
2022-12-23T10:35:41.040Z,14.57
2022-12-23T10:38:23.079Z,15.68
2022-12-23T10:41:09.690Z,17.70
2022-12-23T10:43:45.601Z,27.33
2022-12-23T10:46:11.844Z,20.05
2022-12-23T10:48:38.098Z,20.30
2022-12-23T10:51:07.868Z,23.27
2022-12-23T10:53:37.184Z,21.48
2022-12-23T10:56:05.059Z,24.58
2022-12-23T10:58:31.440Z,19.17
2022-12-23T11:00:59.280Z,20.75
2022-12-23T11:03:30.779Z,19.55
2022-12-23T11:05:58.119Z,30.33
2022-12-23T11:08:25.638Z,23.88
2022-12-23T11:10:52.570Z,28.27
2022-12-23T11:13:34.442Z,36.08
2022-12-23T11:16:19.236Z,32.42
2022-12-23T11:18:52.849Z,27.88
2022-12-23T11:21:19.136Z,32.50
2022-12-23T11:23:45.451Z,37.72
2022-12-23T11:26:13.615Z,32.00
2022-12-23T11:28:48.139Z,39.90
2022-12-23T11:31:16.183Z,39.80
2022-12-23T11:33:47.928Z,47.72
2022-12-23T11:36:14.504Z,38.97
2022-12-23T11:38:54.593Z,43.75
2022-12-23T11:41:22.263Z,43.03
2022-12-23T11:43:58.104Z,37.38
2022-12-23T11:46:26.324Z,31.30
2022-12-23T11:49:06.252Z,45.05
2022-12-23T11:51:32.562Z,53.83
2022-12-23T11:53:59.880Z,36.78
2022-12-23T11:56:26.448Z,41.50
2022-12-23T11:59:12.998Z,33.95
2022-12-23T12:01:39.881Z,46.85
2022-12-23T12:04:07.898Z,29.02
2022-12-23T12:06:34.449Z,40.28
2022-12-23T12:09:03.723Z,36.05
2022-12-23T12:11:38.009Z,28.40
2022-12-23T12:14:06.306Z,35.33
2022-12-23T12:16:51.696Z,29.90
2022-12-23T12:19:28.062Z,31.65
2022-12-23T12:21:56.165Z,36.03
2022-12-23T12:24:48.754Z,29.63
2022-12-23T12:27:15.066Z,34.25
2022-12-23T12:29:41.293Z,32.00
2022-12-23T12:32:12.293Z,23.00
2022-12-23T12:34:58.344Z,25.65
2022-12-23T12:37:29.652Z,20.73
2022-12-23T12:39:55.913Z,28.52
2022-12-23T12:42:22.176Z,30.15
2022-12-23T12:45:00.333Z,25.60
2022-12-23T12:47:52.809Z,33.15
2022-12-23T12:50:20.547Z,25.38
2022-12-23T12:52:46.831Z,23.65
2022-12-23T12:55:27.965Z,25.90
2022-12-23T12:57:54.271Z,29.88
2022-12-23T13:00:22.404Z,20.30
2022-12-23T13:03:03.756Z,26.38
2022-12-23T13:05:39.035Z,24.48
2022-12-23T13:08:14.875Z,22.90
2022-12-23T13:10:47.298Z,24.27
2022-12-23T13:13:32.299Z,19.38
2022-12-23T13:16:02.729Z,19.52
2022-12-23T13:18:53.873Z,23.38
2022-12-23T13:21:32.704Z,23.60
2022-12-23T13:24:16.928Z,25.58
2022-12-23T13:26:43.263Z,20.55
2022-12-23T13:29:37.753Z,18.27
2022-12-23T13:32:24.259Z,21.52
2022-12-23T13:35:09.145Z,25.70
2022-12-23T13:37:56.794Z,18.90
2022-12-23T13:40:35.173Z,19.10
2022-12-23T13:43:06.598Z,24.02
2022-12-23T13:45:35.265Z,15.15
2022-12-23T13:48:27.907Z,18.98
2022-12-23T13:51:00.388Z,19.92
2022-12-23T13:53:47.389Z,25.25
2022-12-23T13:56:14.426Z,19.00
2022-12-23T13:58:41.199Z,20.60
2022-12-23T14:01:07.703Z,16.60
2022-12-23T14:03:34.889Z,19.27
2022-12-23T14:06:20.921Z,15.93
2022-12-23T14:08:47.654Z,18.58
2022-12-23T14:11:28.371Z,15.55
2022-12-23T14:13:59.352Z,27.25
2022-12-23T14:16:25.878Z,17.33
2022-12-23T14:18:54.979Z,21.08
2022-12-23T14:21:30.369Z,19.00
2022-12-23T14:24:04.709Z,18.42
2022-12-23T14:26:54.083Z,27.30
2022-12-23T14:29:33.218Z,11.10
2022-12-23T14:31:59.497Z,17.05
2022-12-23T14:34:30.336Z,12.43
2022-12-23T14:39:29.959Z,13.02
2022-12-23T14:42:01.704Z,13.68
2022-12-23T14:44:37.532Z,15.23
2022-12-23T14:47:05.219Z,13.55
2022-12-23T14:49:40.120Z,15.57
2022-12-23T14:52:25.511Z,20.20
2022-12-23T14:55:27.975Z,16.95
2022-12-23T14:57:37.999Z,21.55
2022-12-23T15:00:05.618Z,17.45
2022-12-23T15:02:38.955Z,16.88
2022-12-23T15:05:05.470Z,18.70
2022-12-23T15:07:40.346Z,14.73
2022-12-23T15:10:08.625Z,20.05
2022-12-23T15:12:37.244Z,17.55
2022-12-23T15:15:15.618Z,12.68
2022-12-23T15:17:42.301Z,14.75
2022-12-23T15:20:23.036Z,19.45
2022-12-23T15:22:49.933Z,17.30
2022-12-23T15:25:22.369Z,22.23
2022-12-23T15:27:49.052Z,15.52
2022-12-23T15:30:16.021Z,12.60
2022-12-23T15:32:43.206Z,19.13
2022-12-23T15:35:13.578Z,15.23
2022-12-23T15:37:40.312Z,9.82
2022-12-23T15:40:13.064Z,10.52
2022-12-23T15:42:46.339Z,9.43
2022-12-23T15:45:31.194Z,13.70
2022-12-23T15:47:57.488Z,10.75
2022-12-23T15:50:23.923Z,13.18
2022-12-23T15:52:50.623Z,10.98
2022-12-23T15:55:22.792Z,24.02
2022-12-23T15:57:50.584Z,8.05
2022-12-23T16:00:22.092Z,10.40
2022-12-23T16:03:00.561Z,15.68
2022-12-23T16:05:35.063Z,15.30
2022-12-23T16:08:13.802Z,15.15
2022-12-23T16:10:40.354Z,19.73
2022-12-23T16:13:17.847Z,15.18
2022-12-23T16:15:44.451Z,14.93
2022-12-23T16:18:34.379Z,20.33
2022-12-23T16:21:02.232Z,16.77
2022-12-23T16:23:32.739Z,17.73
2022-12-23T16:26:00.114Z,17.80
2022-12-23T16:28:27.739Z,16.45
2022-12-23T16:30:55.173Z,16.98
2022-12-23T16:33:24.597Z,15.40
2022-12-23T16:35:50.951Z,11.00
2022-12-23T16:38:18.816Z,15.93
2022-12-23T16:40:47.284Z,12.95
2022-12-23T16:43:13.550Z,14.20
2022-12-23T16:45:41.145Z,16.48
2022-12-23T16:48:09.986Z,13.02
2022-12-23T16:50:36.300Z,27.17
2022-12-23T16:53:02.635Z,16.92
2022-12-23T16:55:28.924Z,14.57
2022-12-23T16:57:55.171Z,14.50
2022-12-23T17:00:21.470Z,19.33
2022-12-23T17:02:47.890Z,16.45
2022-12-23T17:05:18.936Z,17.67
2022-12-23T17:07:45.790Z,17.85
2022-12-23T17:10:13.177Z,14.55
2022-12-23T17:12:39.629Z,14.05
2022-12-23T17:15:06.544Z,11.55
2022-12-23T17:17:32.789Z,13.65
2022-12-23T17:19:59.079Z,9.75
2022-12-23T17:22:25.389Z,8.02
2022-12-23T17:24:51.731Z,8.65
2022-12-23T17:27:20.471Z,7.10
2022-12-23T17:29:46.804Z,11.88
2022-12-23T17:32:14.058Z,6.47
2022-12-23T17:34:40.486Z,12.40
2022-12-23T17:37:17.044Z,10.18
2022-12-23T17:39:44.292Z,8.15
2022-12-23T17:42:17.772Z,11.45
2022-12-23T17:44:48.349Z,11.65
2022-12-23T17:47:16.449Z,15.20
2022-12-23T17:49:43.293Z,12.50
2022-12-23T17:52:19.832Z,14.18
2022-12-23T17:54:47.347Z,13.32
2022-12-23T17:57:18.080Z,11.07
2022-12-23T17:59:47.689Z,14.10
2022-12-23T18:02:20.539Z,19.33
2022-12-23T18:04:46.867Z,9.77
2022-12-23T18:07:13.351Z,15.75
2022-12-23T18:09:39.574Z,20.50
2022-12-23T18:12:06.062Z,12.40
2022-12-23T18:14:32.317Z,36.22
2022-12-23T18:16:59.123Z,12.18
2022-12-23T18:19:25.456Z,13.82
2022-12-23T18:21:52.257Z,22.83
2022-12-23T18:24:18.625Z,40.15
2022-12-23T18:26:44.998Z,25.88
2022-12-23T18:29:11.273Z,25.10
2022-12-23T18:31:40.961Z,39.25
2022-12-23T18:34:14.154Z,16.58
2022-12-23T18:36:40.457Z,23.83
2022-12-23T18:39:06.754Z,17.02
2022-12-23T18:41:32.985Z,46.03
2022-12-23T18:43:59.248Z,26.77
2022-12-23T18:46:25.532Z,43.33
2022-12-23T18:48:51.855Z,35.28
2022-12-23T18:51:20.193Z,38.63
2022-12-23T18:53:46.761Z,23.88
2022-12-23T18:56:19.030Z,28.13
2022-12-23T18:58:45.339Z,34.88
2022-12-23T19:01:12.713Z,33.35
2022-12-23T19:03:39.096Z,26.88
2022-12-23T19:06:06.647Z,26.65
2022-12-23T19:08:34.184Z,37.50
2022-12-23T19:11:01.000Z,21.55
2022-12-23T19:13:27.288Z,17.70
2022-12-23T19:15:53.675Z,22.00
2022-12-23T19:18:21.177Z,14.88
2022-12-23T19:20:48.213Z,32.55
2022-12-23T19:23:14.823Z,28.15
2022-12-23T19:25:47.783Z,22.90
2022-12-23T19:28:21.555Z,22.15
2022-12-23T19:30:47.859Z,39.22
2022-12-23T19:33:14.175Z,33.53
2022-12-23T19:35:41.212Z,37.35
2022-12-23T19:38:07.499Z,18.25
2022-12-23T19:40:33.802Z,28.23
2022-12-23T19:43:00.111Z,27.38
2022-12-23T19:45:26.395Z,31.00
2022-12-23T19:47:53.299Z,25.25
2022-12-23T19:50:20.000Z,30.98
2022-12-23T19:52:46.390Z,36.33
2022-12-23T19:55:12.934Z,34.00
2022-12-23T19:57:39.203Z,34.63
2022-12-23T20:00:05.852Z,25.67
2022-12-23T20:02:32.243Z,42.88
2022-12-23T20:04:58.579Z,26.10
2022-12-23T20:07:24.846Z,28.77
2022-12-23T20:09:51.132Z,28.30
2022-12-23T20:12:17.419Z,30.23
2022-12-23T20:14:43.719Z,21.60
2022-12-23T20:17:10.176Z,20.20
2022-12-23T20:19:42.081Z,14.65
2022-12-23T20:22:11.814Z,25.17
2022-12-23T20:24:38.120Z,27.38
2022-12-23T20:27:10.700Z,23.00
2022-12-23T20:29:38.056Z,14.63
2022-12-23T20:32:04.574Z,12.82
2022-12-23T20:34:34.898Z,17.73
2022-12-23T20:37:05.264Z,19.55
2022-12-23T20:39:31.555Z,22.80
2022-12-23T20:41:57.792Z,12.38
2022-12-23T20:44:34.337Z,11.15
2022-12-23T20:47:01.785Z,22.00
2022-12-23T20:49:28.146Z,9.43
2022-12-23T20:51:54.379Z,14.98
2022-12-23T20:54:24.906Z,16.52
2022-12-23T20:56:54.379Z,19.02
2022-12-23T20:59:20.770Z,15.15
2022-12-23T21:01:47.049Z,8.60
2022-12-23T21:04:17.914Z,19.15
2022-12-23T21:09:12.492Z,12.15
2022-12-23T21:11:40.766Z,14.55
2022-12-23T21:14:07.815Z,21.45
2022-12-23T21:16:35.381Z,50.95
2022-12-23T21:19:01.706Z,16.63
2022-12-23T21:21:28.736Z,19.17
2022-12-23T21:23:55.611Z,31.20
2022-12-23T21:26:23.040Z,25.75
2022-12-23T21:28:50.586Z,34.88
2022-12-23T21:31:18.418Z,10.88
2022-12-23T21:33:45.870Z,16.38
2022-12-23T21:36:19.678Z,21.02
2022-12-23T21:38:46.786Z,16.73
2022-12-23T21:41:14.488Z,6.80
2022-12-23T21:43:40.759Z,15.23
2022-12-23T21:46:08.658Z,17.63
2022-12-23T21:48:35.661Z,13.40
2022-12-23T21:51:03.222Z,12.68
2022-12-23T21:53:29.571Z,17.77
2022-12-23T21:55:59.533Z,23.83
2022-12-23T21:58:25.814Z,12.20
2022-12-23T22:00:52.235Z,15.25
2022-12-23T22:03:18.597Z,21.75
2022-12-23T22:05:44.827Z,35.45
2022-12-23T22:08:11.170Z,12.82
2022-12-23T22:10:38.407Z,21.40
2022-12-23T22:13:05.052Z,11.95
2022-12-23T22:15:31.570Z,24.17
2022-12-23T22:17:57.891Z,23.20
2022-12-23T22:20:24.263Z,12.48
2022-12-23T22:22:50.543Z,29.63
2022-12-23T22:25:16.857Z,16.50
2022-12-23T22:27:45.010Z,14.02
2022-12-23T22:30:11.360Z,18.45
2022-12-23T22:32:42.254Z,17.33
2022-12-23T22:35:09.020Z,21.85
2022-12-23T22:37:35.265Z,24.15
2022-12-23T22:40:01.758Z,17.65
2022-12-23T22:42:27.999Z,17.23
2022-12-23T22:44:54.223Z,17.65
2022-12-23T22:47:20.606Z,28.70
2022-12-23T22:49:47.195Z,18.40
2022-12-23T22:52:13.572Z,13.50
2022-12-23T22:54:39.860Z,12.68
2022-12-23T22:57:06.193Z,13.75
2022-12-23T22:59:32.439Z,9.05
2022-12-23T23:01:58.870Z,19.67
2022-12-23T23:04:25.192Z,13.23
2022-12-23T23:06:51.560Z,29.63
2022-12-23T23:09:18.702Z,17.23
2022-12-23T23:11:45.144Z,29.17
2022-12-23T23:14:11.977Z,10.48
2022-12-23T23:16:38.492Z,13.82
2022-12-23T23:19:05.598Z,10.80
2022-12-23T23:21:32.056Z,14.02
2022-12-23T23:23:58.395Z,25.25
2022-12-23T23:26:27.177Z,18.48
2022-12-23T23:28:54.316Z,23.15
2022-12-23T23:34:06.886Z,17.05
2022-12-23T23:36:33.203Z,20.25
2022-12-23T23:38:59.492Z,18.13
2022-12-23T23:41:25.798Z,8.68
2022-12-23T23:43:52.211Z,15.45
2022-12-23T23:46:19.046Z,19.55
2022-12-23T23:48:45.438Z,14.55
2022-12-23T23:51:12.644Z,24.02
2022-12-23T23:53:39.012Z,24.05
2022-12-23T23:56:06.331Z,24.88
2022-12-23T23:58:33.554Z,28.65
